sensor_id;sensor_type;location;lat;lon;timestamp;P1;durP1;ratioP1;P2;durP2;ratioP2
75379;SDS011;65641;44.714;37.756;2023-03-23T00:00:24;5.70;;;3.53;;
75379;SDS011;65641;44.714;37.756;2023-03-23T00:01:26;4.43;;;3.05;;
75379;SDS011;65641;44.714;37.756;2023-03-23T00:02:31;5.63;;;2.95;;
75379;SDS011;65641;44.714;37.756;2023-03-23T00:03:39;4.05;;;2.88;;
75379;SDS011;65641;44.714;37.756;2023-03-23T00:04:42;5.05;;;3.45;;
75379;SDS011;65641;44.714;37.756;2023-03-23T00:06:52;6.07;;;3.00;;
75379;SDS011;65641;44.714;37.756;2023-03-23T00:07:54;5.25;;;2.83;;
75379;SDS011;65641;44.714;37.756;2023-03-23T00:08:56;5.30;;;3.50;;
75379;SDS011;65641;44.714;37.756;2023-03-23T00:10:00;5.45;;;3.17;;
75379;SDS011;65641;44.714;37.756;2023-03-23T00:11:04;5.38;;;3.03;;
75379;SDS011;65641;44.714;37.756;2023-03-23T00:12:06;4.97;;;3.60;;
75379;SDS011;65641;44.714;37.756;2023-03-23T00:13:08;4.75;;;3.38;;
75379;SDS011;65641;44.714;37.756;2023-03-23T00:14:09;5.93;;;3.15;;
75379;SDS011;65641;44.714;37.756;2023-03-23T00:15:14;6.68;;;3.28;;
75379;SDS011;65641;44.714;37.756;2023-03-23T00:16:20;4.45;;;3.28;;
75379;SDS011;65641;44.714;37.756;2023-03-23T00:17:31;4.20;;;3.30;;
75379;SDS011;65641;44.714;37.756;2023-03-23T00:18:36;5.93;;;3.50;;
75379;SDS011;65641;44.714;37.756;2023-03-23T00:20:57;4.22;;;3.08;;
75379;SDS011;65641;44.714;37.756;2023-03-23T00:21:59;4.95;;;2.83;;
75379;SDS011;65641;44.714;37.756;2023-03-23T00:23:01;5.32;;;2.90;;
75379;SDS011;65641;44.714;37.756;2023-03-23T00:24:18;5.53;;;3.13;;
75379;SDS011;65641;44.714;37.756;2023-03-23T00:25:20;5.03;;;3.17;;
75379;SDS011;65641;44.714;37.756;2023-03-23T00:26:21;4.93;;;3.17;;
75379;SDS011;65641;44.714;37.756;2023-03-23T00:28:25;5.00;;;2.83;;
75379;SDS011;65641;44.714;37.756;2023-03-23T00:29:27;4.60;;;3.05;;
75379;SDS011;65641;44.714;37.756;2023-03-23T00:30:29;5.82;;;3.15;;
75379;SDS011;65641;44.714;37.756;2023-03-23T00:31:31;5.43;;;3.10;;
75379;SDS011;65641;44.714;37.756;2023-03-23T00:32:33;4.90;;;3.03;;
75379;SDS011;65641;44.714;37.756;2023-03-23T00:33:36;6.32;;;3.33;;
75379;SDS011;65641;44.714;37.756;2023-03-23T00:34:41;4.85;;;3.45;;
75379;SDS011;65641;44.714;37.756;2023-03-23T00:35:45;4.93;;;2.85;;
75379;SDS011;65641;44.714;37.756;2023-03-23T00:36:51;5.38;;;3.28;;
75379;SDS011;65641;44.714;37.756;2023-03-23T00:37:57;4.90;;;3.33;;
75379;SDS011;65641;44.714;37.756;2023-03-23T00:39:01;4.45;;;3.40;;
75379;SDS011;65641;44.714;37.756;2023-03-23T00:40:04;4.47;;;2.67;;
75379;SDS011;65641;44.714;37.756;2023-03-23T00:41:11;4.50;;;3.00;;
75379;SDS011;65641;44.714;37.756;2023-03-23T00:42:16;4.50;;;2.88;;
75379;SDS011;65641;44.714;37.756;2023-03-23T00:43:18;6.53;;;3.10;;
75379;SDS011;65641;44.714;37.756;2023-03-23T00:44:21;4.65;;;2.60;;
75379;SDS011;65641;44.714;37.756;2023-03-23T00:45:24;5.35;;;3.83;;
75379;SDS011;65641;44.714;37.756;2023-03-23T00:46:26;4.28;;;3.00;;
75379;SDS011;65641;44.714;37.756;2023-03-23T00:47:29;4.70;;;3.22;;
75379;SDS011;65641;44.714;37.756;2023-03-23T00:48:32;5.50;;;3.20;;
75379;SDS011;65641;44.714;37.756;2023-03-23T00:50:35;4.72;;;2.65;;
75379;SDS011;65641;44.714;37.756;2023-03-23T00:51:37;4.82;;;2.80;;
75379;SDS011;65641;44.714;37.756;2023-03-23T00:52:40;4.82;;;3.03;;
75379;SDS011;65641;44.714;37.756;2023-03-23T00:53:41;5.93;;;3.40;;
75379;SDS011;65641;44.714;37.756;2023-03-23T00:54:43;5.80;;;3.78;;
75379;SDS011;65641;44.714;37.756;2023-03-23T00:55:45;4.70;;;3.42;;
75379;SDS011;65641;44.714;37.756;2023-03-23T00:56:48;4.95;;;3.03;;
75379;SDS011;65641;44.714;37.756;2023-03-23T00:57:50;4.90;;;3.25;;
75379;SDS011;65641;44.714;37.756;2023-03-23T00:58:52;4.95;;;3.30;;
75379;SDS011;65641;44.714;37.756;2023-03-23T01:00:55;5.03;;;3.03;;
75379;SDS011;65641;44.714;37.756;2023-03-23T01:01:57;4.90;;;3.40;;
75379;SDS011;65641;44.714;37.756;2023-03-23T01:02:59;5.38;;;3.08;;
75379;SDS011;65641;44.714;37.756;2023-03-23T01:04:01;6.10;;;3.67;;
75379;SDS011;65641;44.714;37.756;2023-03-23T01:05:05;4.00;;;2.97;;
75379;SDS011;65641;44.714;37.756;2023-03-23T01:06:08;4.85;;;3.55;;
75379;SDS011;65641;44.714;37.756;2023-03-23T01:07:17;5.30;;;3.47;;
75379;SDS011;65641;44.714;37.756;2023-03-23T01:08:23;6.07;;;3.17;;
75379;SDS011;65641;44.714;37.756;2023-03-23T01:09:25;5.55;;;3.42;;
75379;SDS011;65641;44.714;37.756;2023-03-23T01:10:27;5.82;;;3.30;;
75379;SDS011;65641;44.714;37.756;2023-03-23T01:11:29;6.47;;;3.90;;
75379;SDS011;65641;44.714;37.756;2023-03-23T01:12:30;4.90;;;3.08;;
75379;SDS011;65641;44.714;37.756;2023-03-23T01:14:34;4.95;;;3.42;;
75379;SDS011;65641;44.714;37.756;2023-03-23T01:15:36;5.43;;;3.13;;
75379;SDS011;65641;44.714;37.756;2023-03-23T01:16:38;5.97;;;3.63;;
75379;SDS011;65641;44.714;37.756;2023-03-23T01:17:40;5.03;;;3.53;;
75379;SDS011;65641;44.714;37.756;2023-03-23T01:18:42;4.70;;;3.33;;
75379;SDS011;65641;44.714;37.756;2023-03-23T01:19:45;5.93;;;3.50;;
75379;SDS011;65641;44.714;37.756;2023-03-23T01:20:49;4.90;;;3.45;;
75379;SDS011;65641;44.714;37.756;2023-03-23T01:21:53;5.43;;;3.33;;
75379;SDS011;65641;44.714;37.756;2023-03-23T01:22:55;4.82;;;2.92;;
75379;SDS011;65641;44.714;37.756;2023-03-23T01:24:01;6.78;;;3.95;;
75379;SDS011;65641;44.714;37.756;2023-03-23T01:26:08;4.70;;;3.05;;
75379;SDS011;65641;44.714;37.756;2023-03-23T01:27:12;4.82;;;3.38;;
75379;SDS011;65641;44.714;37.756;2023-03-23T01:28:13;5.55;;;3.15;;
75379;SDS011;65641;44.714;37.756;2023-03-23T01:29:15;6.03;;;3.03;;
75379;SDS011;65641;44.714;37.756;2023-03-23T01:30:17;5.60;;;3.47;;
75379;SDS011;65641;44.714;37.756;2023-03-23T01:31:20;5.97;;;3.45;;
75379;SDS011;65641;44.714;37.756;2023-03-23T01:32:23;6.07;;;3.90;;
75379;SDS011;65641;44.714;37.756;2023-03-23T01:33:25;5.45;;;3.28;;
75379;SDS011;65641;44.714;37.756;2023-03-23T01:35:28;5.45;;;3.40;;
75379;SDS011;65641;44.714;37.756;2023-03-23T01:36:30;6.65;;;3.90;;
75379;SDS011;65641;44.714;37.756;2023-03-23T01:37:37;6.32;;;3.45;;
75379;SDS011;65641;44.714;37.756;2023-03-23T01:38:39;5.25;;;3.35;;
75379;SDS011;65641;44.714;37.756;2023-03-23T01:39:43;4.75;;;3.78;;
75379;SDS011;65641;44.714;37.756;2023-03-23T01:40:45;5.47;;;3.78;;
75379;SDS011;65641;44.714;37.756;2023-03-23T01:41:48;5.15;;;3.60;;
75379;SDS011;65641;44.714;37.756;2023-03-23T01:42:54;7.10;;;3.40;;
75379;SDS011;65641;44.714;37.756;2023-03-23T01:46:22;7.97;;;3.10;;
75379;SDS011;65641;44.714;37.756;2023-03-23T01:47:25;6.03;;;3.40;;
75379;SDS011;65641;44.714;37.756;2023-03-23T01:49:36;6.45;;;4.00;;
75379;SDS011;65641;44.714;37.756;2023-03-23T01:52:02;6.93;;;3.72;;
75379;SDS011;65641;44.714;37.756;2023-03-23T01:53:11;5.68;;;3.78;;
75379;SDS011;65641;44.714;37.756;2023-03-23T01:54:14;5.68;;;3.90;;
75379;SDS011;65641;44.714;37.756;2023-03-23T01:55:22;7.22;;;3.78;;
75379;SDS011;65641;44.714;37.756;2023-03-23T01:56:27;7.63;;;3.85;;
75379;SDS011;65641;44.714;37.756;2023-03-23T01:57:34;5.30;;;3.72;;
75379;SDS011;65641;44.714;37.756;2023-03-23T01:58:37;7.65;;;3.95;;
75379;SDS011;65641;44.714;37.756;2023-03-23T01:59:40;6.55;;;3.85;;
75379;SDS011;65641;44.714;37.756;2023-03-23T02:00:54;7.30;;;4.22;;
75379;SDS011;65641;44.714;37.756;2023-03-23T02:01:58;6.97;;;5.55;;
75379;SDS011;65641;44.714;37.756;2023-03-23T02:03:02;6.55;;;3.42;;
75379;SDS011;65641;44.714;37.756;2023-03-23T02:04:07;5.75;;;3.95;;
75379;SDS011;65641;44.714;37.756;2023-03-23T02:05:12;6.57;;;4.53;;
75379;SDS011;65641;44.714;37.756;2023-03-23T02:07:37;6.45;;;3.90;;
75379;SDS011;65641;44.714;37.756;2023-03-23T02:08:40;6.32;;;4.18;;
75379;SDS011;65641;44.714;37.756;2023-03-23T02:09:45;7.75;;;4.28;;
75379;SDS011;65641;44.714;37.756;2023-03-23T02:10:47;6.55;;;3.95;;
75379;SDS011;65641;44.714;37.756;2023-03-23T02:11:49;6.00;;;3.58;;
75379;SDS011;65641;44.714;37.756;2023-03-23T02:12:51;7.32;;;4.20;;
75379;SDS011;65641;44.714;37.756;2023-03-23T02:13:53;7.95;;;4.22;;
75379;SDS011;65641;44.714;37.756;2023-03-23T02:14:55;6.43;;;3.45;;
75379;SDS011;65641;44.714;37.756;2023-03-23T02:16:04;5.97;;;4.03;;
75379;SDS011;65641;44.714;37.756;2023-03-23T02:17:33;8.18;;;4.63;;
75379;SDS011;65641;44.714;37.756;2023-03-23T02:20:38;5.30;;;3.58;;
75379;SDS011;65641;44.714;37.756;2023-03-23T02:25:30;8.10;;;4.28;;
75379;SDS011;65641;44.714;37.756;2023-03-23T02:28:16;8.52;;;4.95;;
75379;SDS011;65641;44.714;37.756;2023-03-23T02:31:17;8.75;;;4.57;;
75379;SDS011;65641;44.714;37.756;2023-03-23T02:32:57;7.70;;;4.40;;
75379;SDS011;65641;44.714;37.756;2023-03-23T02:34:31;8.32;;;4.30;;
75379;SDS011;65641;44.714;37.756;2023-03-23T02:36:30;8.60;;;4.25;;
75379;SDS011;65641;44.714;37.756;2023-03-23T02:37:36;7.80;;;4.32;;
75379;SDS011;65641;44.714;37.756;2023-03-23T02:39:04;9.60;;;4.95;;
75379;SDS011;65641;44.714;37.756;2023-03-23T02:40:15;8.57;;;5.13;;
75379;SDS011;65641;44.714;37.756;2023-03-23T02:41:24;9.02;;;4.18;;
75379;SDS011;65641;44.714;37.756;2023-03-23T02:42:31;8.02;;;5.43;;
75379;SDS011;65641;44.714;37.756;2023-03-23T02:43:36;8.35;;;4.88;;
75379;SDS011;65641;44.714;37.756;2023-03-23T02:44:44;8.60;;;6.90;;
75379;SDS011;65641;44.714;37.756;2023-03-23T02:45:48;7.00;;;5.05;;
75379;SDS011;65641;44.714;37.756;2023-03-23T02:46:52;8.38;;;4.78;;
75379;SDS011;65641;44.714;37.756;2023-03-23T02:47:55;7.57;;;5.10;;
75379;SDS011;65641;44.714;37.756;2023-03-23T02:48:57;8.77;;;5.00;;
75379;SDS011;65641;44.714;37.756;2023-03-23T02:50:01;11.25;;;5.43;;
75379;SDS011;65641;44.714;37.756;2023-03-23T02:51:03;7.75;;;4.95;;
75379;SDS011;65641;44.714;37.756;2023-03-23T02:52:09;7.93;;;5.18;;
75379;SDS011;65641;44.714;37.756;2023-03-23T02:53:18;7.47;;;4.80;;
75379;SDS011;65641;44.714;37.756;2023-03-23T02:54:27;8.45;;;5.18;;
75379;SDS011;65641;44.714;37.756;2023-03-23T02:55:30;8.07;;;4.88;;
75379;SDS011;65641;44.714;37.756;2023-03-23T02:56:37;6.95;;;4.55;;
75379;SDS011;65641;44.714;37.756;2023-03-23T02:57:47;8.45;;;5.20;;
75379;SDS011;65641;44.714;37.756;2023-03-23T02:58:50;7.80;;;4.75;;
75379;SDS011;65641;44.714;37.756;2023-03-23T02:59:52;9.30;;;5.13;;
75379;SDS011;65641;44.714;37.756;2023-03-23T03:00:54;9.02;;;5.30;;
75379;SDS011;65641;44.714;37.756;2023-03-23T03:02:00;8.93;;;5.43;;
75379;SDS011;65641;44.714;37.756;2023-03-23T03:03:06;7.22;;;5.00;;
75379;SDS011;65641;44.714;37.756;2023-03-23T03:04:17;8.95;;;5.93;;
75379;SDS011;65641;44.714;37.756;2023-03-23T03:06:38;8.80;;;5.35;;
75379;SDS011;65641;44.714;37.756;2023-03-23T03:08:01;7.55;;;5.35;;
75379;SDS011;65641;44.714;37.756;2023-03-23T03:10:58;10.80;;;5.28;;
75379;SDS011;65641;44.714;37.756;2023-03-23T03:12:14;7.97;;;5.63;;
75379;SDS011;65641;44.714;37.756;2023-03-23T03:19:15;8.93;;;5.75;;
75379;SDS011;65641;44.714;37.756;2023-03-23T03:20:21;8.02;;;4.47;;
75379;SDS011;65641;44.714;37.756;2023-03-23T03:21:27;9.00;;;5.80;;
75379;SDS011;65641;44.714;37.756;2023-03-23T03:22:33;8.30;;;5.78;;
75379;SDS011;65641;44.714;37.756;2023-03-23T03:23:43;9.02;;;5.82;;
75379;SDS011;65641;44.714;37.756;2023-03-23T03:24:50;8.48;;;5.32;;
75379;SDS011;65641;44.714;37.756;2023-03-23T03:25:53;8.45;;;5.10;;
75379;SDS011;65641;44.714;37.756;2023-03-23T03:27:13;8.82;;;5.72;;
75379;SDS011;65641;44.714;37.756;2023-03-23T03:28:37;8.20;;;5.18;;
75379;SDS011;65641;44.714;37.756;2023-03-23T03:29:40;8.23;;;5.35;;
75379;SDS011;65641;44.714;37.756;2023-03-23T03:30:43;8.05;;;5.28;;
75379;SDS011;65641;44.714;37.756;2023-03-23T03:31:47;8.98;;;5.45;;
75379;SDS011;65641;44.714;37.756;2023-03-23T03:32:52;8.68;;;5.22;;
75379;SDS011;65641;44.714;37.756;2023-03-23T03:33:57;7.70;;;5.50;;
75379;SDS011;65641;44.714;37.756;2023-03-23T03:35:03;8.57;;;5.50;;
75379;SDS011;65641;44.714;37.756;2023-03-23T03:36:06;8.18;;;5.53;;
75379;SDS011;65641;44.714;37.756;2023-03-23T03:37:16;8.18;;;5.50;;
75379;SDS011;65641;44.714;37.756;2023-03-23T03:38:19;8.90;;;5.40;;
75379;SDS011;65641;44.714;37.756;2023-03-23T03:39:21;9.95;;;5.95;;
75379;SDS011;65641;44.714;37.756;2023-03-23T03:40:23;8.52;;;5.72;;
75379;SDS011;65641;44.714;37.756;2023-03-23T03:41:25;8.60;;;5.18;;
75379;SDS011;65641;44.714;37.756;2023-03-23T03:42:27;10.48;;;6.50;;
75379;SDS011;65641;44.714;37.756;2023-03-23T03:43:28;8.48;;;5.38;;
75379;SDS011;65641;44.714;37.756;2023-03-23T03:44:31;8.45;;;5.45;;
75379;SDS011;65641;44.714;37.756;2023-03-23T03:45:33;9.00;;;5.88;;
75379;SDS011;65641;44.714;37.756;2023-03-23T03:47:36;10.38;;;6.10;;
75379;SDS011;65641;44.714;37.756;2023-03-23T03:48:39;8.48;;;7.05;;
75379;SDS011;65641;44.714;37.756;2023-03-23T03:49:40;9.52;;;5.53;;
75379;SDS011;65641;44.714;37.756;2023-03-23T03:50:42;9.10;;;5.55;;
75379;SDS011;65641;44.714;37.756;2023-03-23T03:51:44;9.63;;;6.45;;
75379;SDS011;65641;44.714;37.756;2023-03-23T03:52:53;10.23;;;5.30;;
75379;SDS011;65641;44.714;37.756;2023-03-23T03:53:55;9.25;;;5.53;;
75379;SDS011;65641;44.714;37.756;2023-03-23T03:54:57;8.05;;;5.57;;
75379;SDS011;65641;44.714;37.756;2023-03-23T03:55:59;8.63;;;5.70;;
75379;SDS011;65641;44.714;37.756;2023-03-23T03:57:10;9.07;;;5.72;;
75379;SDS011;65641;44.714;37.756;2023-03-23T03:58:31;9.07;;;5.47;;
75379;SDS011;65641;44.714;37.756;2023-03-23T03:59:43;8.48;;;5.40;;
75379;SDS011;65641;44.714;37.756;2023-03-23T04:00:46;9.27;;;6.07;;
75379;SDS011;65641;44.714;37.756;2023-03-23T04:01:53;10.13;;;6.20;;
75379;SDS011;65641;44.714;37.756;2023-03-23T04:02:56;9.07;;;6.22;;
75379;SDS011;65641;44.714;37.756;2023-03-23T04:04:30;8.90;;;5.18;;
75379;SDS011;65641;44.714;37.756;2023-03-23T04:05:32;8.38;;;5.35;;
75379;SDS011;65641;44.714;37.756;2023-03-23T04:06:34;7.32;;;4.55;;
75379;SDS011;65641;44.714;37.756;2023-03-23T04:07:37;10.25;;;5.80;;
75379;SDS011;65641;44.714;37.756;2023-03-23T04:08:40;10.45;;;6.35;;
75379;SDS011;65641;44.714;37.756;2023-03-23T04:09:45;11.07;;;5.93;;
75379;SDS011;65641;44.714;37.756;2023-03-23T04:10:51;8.07;;;5.22;;
75379;SDS011;65641;44.714;37.756;2023-03-23T04:11:53;9.35;;;6.15;;
75379;SDS011;65641;44.714;37.756;2023-03-23T04:13:14;7.68;;;5.55;;
75379;SDS011;65641;44.714;37.756;2023-03-23T04:14:36;8.20;;;5.60;;
75379;SDS011;65641;44.714;37.756;2023-03-23T04:15:38;9.65;;;5.50;;
75379;SDS011;65641;44.714;37.756;2023-03-23T04:16:40;7.68;;;5.53;;
75379;SDS011;65641;44.714;37.756;2023-03-23T04:17:41;8.13;;;6.85;;
75379;SDS011;65641;44.714;37.756;2023-03-23T04:18:43;8.00;;;5.03;;
75379;SDS011;65641;44.714;37.756;2023-03-23T04:19:45;9.45;;;5.43;;
75379;SDS011;65641;44.714;37.756;2023-03-23T04:20:50;7.95;;;5.70;;
75379;SDS011;65641;44.714;37.756;2023-03-23T04:21:55;7.53;;;5.03;;
75379;SDS011;65641;44.714;37.756;2023-03-23T04:22:59;9.13;;;5.28;;
75379;SDS011;65641;44.714;37.756;2023-03-23T04:24:04;9.60;;;5.65;;
75379;SDS011;65641;44.714;37.756;2023-03-23T04:25:06;9.32;;;6.05;;
75379;SDS011;65641;44.714;37.756;2023-03-23T04:26:11;8.27;;;4.88;;
75379;SDS011;65641;44.714;37.756;2023-03-23T04:27:20;8.75;;;5.35;;
75379;SDS011;65641;44.714;37.756;2023-03-23T04:28:24;8.68;;;5.65;;
75379;SDS011;65641;44.714;37.756;2023-03-23T04:29:56;8.85;;;5.80;;
75379;SDS011;65641;44.714;37.756;2023-03-23T04:31:18;9.63;;;5.72;;
75379;SDS011;65641;44.714;37.756;2023-03-23T04:32:25;8.60;;;5.55;;
75379;SDS011;65641;44.714;37.756;2023-03-23T04:33:30;9.13;;;6.20;;
75379;SDS011;65641;44.714;37.756;2023-03-23T04:34:32;8.63;;;5.40;;
75379;SDS011;65641;44.714;37.756;2023-03-23T04:35:36;9.13;;;5.53;;
75379;SDS011;65641;44.714;37.756;2023-03-23T04:36:44;8.45;;;4.95;;
75379;SDS011;65641;44.714;37.756;2023-03-23T04:37:52;8.95;;;5.72;;
75379;SDS011;65641;44.714;37.756;2023-03-23T04:38:55;9.63;;;6.70;;
75379;SDS011;65641;44.714;37.756;2023-03-23T04:39:58;9.65;;;5.85;;
75379;SDS011;65641;44.714;37.756;2023-03-23T04:41:08;8.50;;;5.47;;
75379;SDS011;65641;44.714;37.756;2023-03-23T04:42:30;7.80;;;5.40;;
75379;SDS011;65641;44.714;37.756;2023-03-23T04:43:50;8.48;;;5.65;;
75379;SDS011;65641;44.714;37.756;2023-03-23T04:45:07;9.13;;;5.43;;
75379;SDS011;65641;44.714;37.756;2023-03-23T04:46:11;8.40;;;5.40;;
75379;SDS011;65641;44.714;37.756;2023-03-23T04:47:21;9.25;;;5.32;;
75379;SDS011;65641;44.714;37.756;2023-03-23T04:48:29;8.70;;;5.20;;
75379;SDS011;65641;44.714;37.756;2023-03-23T04:49:56;9.10;;;5.72;;
75379;SDS011;65641;44.714;37.756;2023-03-23T04:51:05;8.32;;;5.68;;
75379;SDS011;65641;44.714;37.756;2023-03-23T04:52:06;8.35;;;5.80;;
75379;SDS011;65641;44.714;37.756;2023-03-23T04:53:20;8.95;;;5.85;;
75379;SDS011;65641;44.714;37.756;2023-03-23T04:54:23;7.43;;;5.75;;
75379;SDS011;65641;44.714;37.756;2023-03-23T04:55:30;9.82;;;5.85;;
75379;SDS011;65641;44.714;37.756;2023-03-23T04:56:41;9.63;;;5.43;;
75379;SDS011;65641;44.714;37.756;2023-03-23T04:57:47;8.50;;;5.95;;
75379;SDS011;65641;44.714;37.756;2023-03-23T04:59:08;7.47;;;5.28;;
75379;SDS011;65641;44.714;37.756;2023-03-23T05:00:20;8.48;;;5.45;;
75379;SDS011;65641;44.714;37.756;2023-03-23T05:01:25;9.32;;;5.60;;
75379;SDS011;65641;44.714;37.756;2023-03-23T05:02:43;8.93;;;5.53;;
75379;SDS011;65641;44.714;37.756;2023-03-23T05:03:48;10.07;;;5.47;;
75379;SDS011;65641;44.714;37.756;2023-03-23T05:04:49;8.35;;;5.50;;
75379;SDS011;65641;44.714;37.756;2023-03-23T05:06:01;10.25;;;6.18;;
75379;SDS011;65641;44.714;37.756;2023-03-23T05:07:04;7.70;;;5.68;;
75379;SDS011;65641;44.714;37.756;2023-03-23T05:08:15;7.55;;;5.03;;
75379;SDS011;65641;44.714;37.756;2023-03-23T05:09:16;7.47;;;5.45;;
75379;SDS011;65641;44.714;37.756;2023-03-23T05:10:19;9.13;;;5.97;;
75379;SDS011;65641;44.714;37.756;2023-03-23T05:11:21;7.70;;;5.72;;
75379;SDS011;65641;44.714;37.756;2023-03-23T05:12:24;9.57;;;6.03;;
75379;SDS011;65641;44.714;37.756;2023-03-23T05:13:37;7.88;;;5.40;;
75379;SDS011;65641;44.714;37.756;2023-03-23T05:14:41;9.30;;;5.82;;
75379;SDS011;65641;44.714;37.756;2023-03-23T05:15:46;8.68;;;5.93;;
75379;SDS011;65641;44.714;37.756;2023-03-23T05:16:48;7.70;;;5.65;;
75379;SDS011;65641;44.714;37.756;2023-03-23T05:17:53;7.82;;;5.65;;
75379;SDS011;65641;44.714;37.756;2023-03-23T05:18:55;7.47;;;5.20;;
75379;SDS011;65641;44.714;37.756;2023-03-23T05:20:02;8.48;;;4.82;;
75379;SDS011;65641;44.714;37.756;2023-03-23T05:21:13;8.40;;;5.32;;
75379;SDS011;65641;44.714;37.756;2023-03-23T05:22:19;6.97;;;5.38;;
75379;SDS011;65641;44.714;37.756;2023-03-23T05:23:23;7.93;;;5.63;;
75379;SDS011;65641;44.714;37.756;2023-03-23T05:24:31;8.38;;;5.72;;
75379;SDS011;65641;44.714;37.756;2023-03-23T05:25:36;9.32;;;5.45;;
75379;SDS011;65641;44.714;37.756;2023-03-23T05:26:49;8.07;;;5.50;;
75379;SDS011;65641;44.714;37.756;2023-03-23T05:27:59;8.63;;;5.13;;
75379;SDS011;65641;44.714;37.756;2023-03-23T05:29:15;7.15;;;5.13;;
75379;SDS011;65641;44.714;37.756;2023-03-23T05:30:31;7.50;;;5.10;;
75379;SDS011;65641;44.714;37.756;2023-03-23T05:31:33;8.48;;;5.82;;
75379;SDS011;65641;44.714;37.756;2023-03-23T05:32:35;8.25;;;5.30;;
75379;SDS011;65641;44.714;37.756;2023-03-23T05:33:54;7.22;;;5.40;;
75379;SDS011;65641;44.714;37.756;2023-03-23T05:35:11;6.35;;;4.60;;
75379;SDS011;65641;44.714;37.756;2023-03-23T05:36:13;8.02;;;4.60;;
75379;SDS011;65641;44.714;37.756;2023-03-23T05:37:37;8.73;;;4.93;;
75379;SDS011;65641;44.714;37.756;2023-03-23T05:38:44;8.10;;;5.03;;
75379;SDS011;65641;44.714;37.756;2023-03-23T05:41:08;7.15;;;5.65;;
75379;SDS011;65641;44.714;37.756;2023-03-23T05:42:15;6.57;;;4.55;;
75379;SDS011;65641;44.714;37.756;2023-03-23T05:43:25;8.50;;;5.05;;
75379;SDS011;65641;44.714;37.756;2023-03-23T05:44:42;7.82;;;4.95;;
75379;SDS011;65641;44.714;37.756;2023-03-23T05:45:46;6.88;;;4.95;;
75379;SDS011;65641;44.714;37.756;2023-03-23T05:46:48;7.60;;;4.57;;
75379;SDS011;65641;44.714;37.756;2023-03-23T05:47:50;8.40;;;4.90;;
75379;SDS011;65641;44.714;37.756;2023-03-23T05:48:55;8.38;;;4.88;;
75379;SDS011;65641;44.714;37.756;2023-03-23T05:50:03;6.88;;;4.78;;
75379;SDS011;65641;44.714;37.756;2023-03-23T05:51:08;8.60;;;4.82;;
75379;SDS011;65641;44.714;37.756;2023-03-23T05:52:14;6.95;;;4.55;;
75379;SDS011;65641;44.714;37.756;2023-03-23T05:53:16;6.78;;;4.53;;
75379;SDS011;65641;44.714;37.756;2023-03-23T05:54:18;8.43;;;5.18;;
75379;SDS011;65641;44.714;37.756;2023-03-23T05:55:22;6.15;;;4.43;;
75379;SDS011;65641;44.714;37.756;2023-03-23T05:56:33;7.05;;;4.35;;
75379;SDS011;65641;44.714;37.756;2023-03-23T05:57:45;6.88;;;4.35;;
75379;SDS011;65641;44.714;37.756;2023-03-23T05:59:01;7.97;;;4.88;;
75379;SDS011;65641;44.714;37.756;2023-03-23T06:00:07;5.75;;;4.93;;
75379;SDS011;65641;44.714;37.756;2023-03-23T06:01:13;7.57;;;5.10;;
75379;SDS011;65641;44.714;37.756;2023-03-23T06:02:15;7.35;;;4.95;;
75379;SDS011;65641;44.714;37.756;2023-03-23T06:03:18;6.38;;;4.68;;
75379;SDS011;65641;44.714;37.756;2023-03-23T06:04:31;6.95;;;4.43;;
75379;SDS011;65641;44.714;37.756;2023-03-23T06:05:52;6.75;;;4.13;;
75379;SDS011;65641;44.714;37.756;2023-03-23T06:06:59;6.95;;;4.60;;
75379;SDS011;65641;44.714;37.756;2023-03-23T06:08:03;7.10;;;4.72;;
75379;SDS011;65641;44.714;37.756;2023-03-23T06:09:05;8.35;;;4.53;;
75379;SDS011;65641;44.714;37.756;2023-03-23T06:10:18;7.80;;;4.82;;
75379;SDS011;65641;44.714;37.756;2023-03-23T06:11:27;7.00;;;4.80;;
75379;SDS011;65641;44.714;37.756;2023-03-23T06:12:49;7.10;;;4.55;;
75379;SDS011;65641;44.714;37.756;2023-03-23T06:14:01;6.82;;;4.70;;
75379;SDS011;65641;44.714;37.756;2023-03-23T06:15:05;8.10;;;4.35;;
75379;SDS011;65641;44.714;37.756;2023-03-23T06:16:25;7.65;;;4.65;;
75379;SDS011;65641;44.714;37.756;2023-03-23T06:17:30;6.10;;;4.00;;
75379;SDS011;65641;44.714;37.756;2023-03-23T06:18:32;6.88;;;4.25;;
75379;SDS011;65641;44.714;37.756;2023-03-23T06:19:46;6.97;;;4.78;;
75379;SDS011;65641;44.714;37.756;2023-03-23T06:20:52;5.70;;;4.13;;
75379;SDS011;65641;44.714;37.756;2023-03-23T06:22:05;5.88;;;3.88;;
75379;SDS011;65641;44.714;37.756;2023-03-23T06:23:25;6.95;;;4.13;;
75379;SDS011;65641;44.714;37.756;2023-03-23T06:24:28;5.55;;;4.55;;
75379;SDS011;65641;44.714;37.756;2023-03-23T06:25:30;6.50;;;4.68;;
75379;SDS011;65641;44.714;37.756;2023-03-23T06:26:37;6.30;;;4.30;;
75379;SDS011;65641;44.714;37.756;2023-03-23T06:27:43;6.28;;;4.53;;
75379;SDS011;65641;44.714;37.756;2023-03-23T06:28:47;6.72;;;4.03;;
75379;SDS011;65641;44.714;37.756;2023-03-23T06:29:51;6.97;;;4.60;;
75379;SDS011;65641;44.714;37.756;2023-03-23T06:30:54;6.85;;;3.88;;
75379;SDS011;65641;44.714;37.756;2023-03-23T06:31:57;6.10;;;4.45;;
75379;SDS011;65641;44.714;37.756;2023-03-23T06:33:02;7.47;;;3.85;;
75379;SDS011;65641;44.714;37.756;2023-03-23T06:34:26;6.28;;;3.88;;
75379;SDS011;65641;44.714;37.756;2023-03-23T06:35:47;5.93;;;3.72;;
75379;SDS011;65641;44.714;37.756;2023-03-23T06:37:07;6.35;;;3.90;;
75379;SDS011;65641;44.714;37.756;2023-03-23T06:38:16;6.07;;;4.07;;
75379;SDS011;65641;44.714;37.756;2023-03-23T06:39:25;5.13;;;3.50;;
75379;SDS011;65641;44.714;37.756;2023-03-23T06:41:05;8.73;;;3.92;;
75379;SDS011;65641;44.714;37.756;2023-03-23T06:42:10;5.50;;;3.65;;
75379;SDS011;65641;44.714;37.756;2023-03-23T06:43:17;5.18;;;3.78;;
75379;SDS011;65641;44.714;37.756;2023-03-23T06:44:28;5.82;;;3.70;;
75379;SDS011;65641;44.714;37.756;2023-03-23T06:45:31;5.05;;;3.88;;
75379;SDS011;65641;44.714;37.756;2023-03-23T06:46:55;6.15;;;3.95;;
75379;SDS011;65641;44.714;37.756;2023-03-23T06:48:04;5.20;;;3.42;;
75379;SDS011;65641;44.714;37.756;2023-03-23T06:49:06;5.85;;;3.58;;
75379;SDS011;65641;44.714;37.756;2023-03-23T06:50:18;6.47;;;4.07;;
75379;SDS011;65641;44.714;37.756;2023-03-23T06:51:21;5.63;;;3.05;;
75379;SDS011;65641;44.714;37.756;2023-03-23T06:52:26;4.90;;;3.38;;
75379;SDS011;65641;44.714;37.756;2023-03-23T06:53:28;5.18;;;3.53;;
75379;SDS011;65641;44.714;37.756;2023-03-23T06:54:32;6.15;;;3.70;;
75379;SDS011;65641;44.714;37.756;2023-03-23T06:55:37;5.93;;;3.65;;
75379;SDS011;65641;44.714;37.756;2023-03-23T06:56:39;6.07;;;3.53;;
75379;SDS011;65641;44.714;37.756;2023-03-23T06:57:42;6.03;;;2.95;;
75379;SDS011;65641;44.714;37.756;2023-03-23T06:58:46;5.63;;;3.42;;
75379;SDS011;65641;44.714;37.756;2023-03-23T06:59:48;6.85;;;4.55;;
75379;SDS011;65641;44.714;37.756;2023-03-23T07:00:54;4.70;;;3.38;;
75379;SDS011;65641;44.714;37.756;2023-03-23T07:02:03;5.07;;;3.40;;
75379;SDS011;65641;44.714;37.756;2023-03-23T07:03:07;4.82;;;3.42;;
75379;SDS011;65641;44.714;37.756;2023-03-23T07:04:11;5.07;;;3.45;;
75379;SDS011;65641;44.714;37.756;2023-03-23T07:05:34;4.25;;;3.40;;
75379;SDS011;65641;44.714;37.756;2023-03-23T07:06:36;5.93;;;5.07;;
75379;SDS011;65641;44.714;37.756;2023-03-23T07:07:43;4.13;;;3.13;;
75379;SDS011;65641;44.714;37.756;2023-03-23T07:09:11;4.60;;;3.28;;
75379;SDS011;65641;44.714;37.756;2023-03-23T07:10:13;4.68;;;3.30;;
75379;SDS011;65641;44.714;37.756;2023-03-23T07:11:15;5.03;;;2.90;;